createdAt,value
2022-09-30T00:01:11.892Z,96977.47
2022-09-30T00:03:38.193Z,96978.72
2022-09-30T00:06:08.466Z,96975.78
2022-09-30T00:08:35.744Z,96970.97
2022-09-30T00:11:02.050Z,96984.78
2022-09-30T00:13:30.290Z,96985.81
2022-09-30T00:15:59.623Z,96979.97
2022-09-30T00:18:25.955Z,96984.19
2022-09-30T00:21:01.094Z,96987.09
2022-09-30T00:23:30.357Z,96986.53
2022-09-30T00:25:56.783Z,96990.50
2022-09-30T00:28:23.552Z,96989.16
2022-09-30T00:30:49.905Z,96982.47
2022-09-30T00:33:16.806Z,96989.09
2022-09-30T00:35:43.171Z,97000.22
2022-09-30T00:38:09.484Z,96991.69
2022-09-30T00:40:35.766Z,96990.34
2022-09-30T00:43:01.994Z,96992.44
2022-09-30T00:45:28.189Z,96995.63
2022-09-30T00:47:54.484Z,96992.41
2022-09-30T00:50:20.930Z,96991.28
2022-09-30T00:52:47.186Z,96993.38
2022-09-30T00:55:15.131Z,96998.41
2022-09-30T00:57:44.589Z,96996.25
2022-09-30T01:00:10.822Z,97007.13
2022-09-30T01:02:37.161Z,96995.38
2022-09-30T01:05:03.404Z,97005.44
2022-09-30T01:07:30.242Z,96998.78
2022-09-30T01:09:57.183Z,97000.06
2022-09-30T01:12:24.537Z,96996.09
2022-09-30T01:14:50.767Z,96993.13
2022-09-30T01:17:17.385Z,96996.28
2022-09-30T01:19:43.621Z,96998.38
2022-09-30T01:22:09.832Z,97001.50
2022-09-30T01:24:36.062Z,97006.28
2022-09-30T01:27:02.783Z,97001.44
2022-09-30T01:29:29.254Z,96997.19
2022-09-30T01:31:58.605Z,97005.41
2022-09-30T01:34:25.313Z,97002.19
2022-09-30T01:36:52.962Z,96998.41
2022-09-30T01:39:19.235Z,97002.63
2022-09-30T01:41:45.649Z,97004.94
2022-09-30T01:44:11.867Z,97010.25
2022-09-30T01:46:38.160Z,97013.94
2022-09-30T01:49:04.412Z,97016.84
2022-09-30T01:51:32.332Z,97017.09
2022-09-30T01:53:58.574Z,97013.88
2022-09-30T01:56:25.057Z,97018.06
2022-09-30T01:58:51.282Z,97021.78
2022-09-30T02:01:17.555Z,97022.28
2022-09-30T02:03:43.860Z,97014.53
2022-09-30T02:06:10.239Z,97020.59
2022-09-30T02:08:36.553Z,97025.09
2022-09-30T02:11:03.012Z,97018.44
2022-09-30T02:13:29.302Z,97013.59
2022-09-30T02:15:55.567Z,97010.41
2022-09-30T02:18:22.545Z,97013.53
2022-09-30T02:20:48.760Z,97019.88
2022-09-30T02:23:15.416Z,97016.91
2022-09-30T02:25:41.631Z,97012.88
2022-09-30T02:28:07.837Z,97008.88
2022-09-30T02:30:34.368Z,97017.34
2022-09-30T02:33:00.582Z,97022.06
2022-09-30T02:35:26.815Z,97010.09
2022-09-30T02:37:53.190Z,97022.00
2022-09-30T02:40:19.426Z,97018.78
2022-09-30T02:42:45.674Z,97024.56
2022-09-30T02:45:11.867Z,97033.00
2022-09-30T02:47:38.044Z,97038.53
2022-09-30T02:50:04.263Z,97031.09
2022-09-30T02:52:30.508Z,97030.50
2022-09-30T02:54:56.712Z,97034.44
2022-09-30T02:57:23.049Z,97035.75
2022-09-30T02:59:49.260Z,97034.38
2022-09-30T03:02:15.689Z,97038.31
2022-09-30T03:04:42.199Z,97031.63
2022-09-30T03:07:08.465Z,97035.34
2022-09-30T03:09:34.860Z,97035.00
2022-09-30T03:12:01.839Z,97036.03
2022-09-30T03:14:28.078Z,97030.97
2022-09-30T03:16:54.750Z,97035.72
2022-09-30T03:19:21.387Z,97039.66
2022-09-30T03:21:47.594Z,97054.75
2022-09-30T03:24:13.930Z,97055.25
2022-09-30T03:26:40.173Z,97059.16
2022-09-30T03:29:08.472Z,97059.41
2022-09-30T03:31:34.856Z,97066.00
2022-09-30T03:34:01.429Z,97074.41
2022-09-30T03:36:27.630Z,97070.16
2022-09-30T03:38:54.141Z,97070.63
2022-09-30T03:41:20.341Z,97063.16
2022-09-30T03:43:46.594Z,97070.06
2022-09-30T03:46:13.969Z,97073.84
2022-09-30T03:48:40.424Z,97075.31
2022-09-30T03:51:06.818Z,97073.06
2022-09-30T03:53:33.078Z,97072.69
2022-09-30T03:55:59.344Z,97077.59
2022-09-30T03:58:25.553Z,97072.94
2022-09-30T04:00:51.772Z,97077.84
2022-09-30T04:03:18.062Z,97076.06
2022-09-30T04:05:44.510Z,97082.28
2022-09-30T04:08:10.746Z,97081.84
2022-09-30T04:10:37.029Z,97084.03
2022-09-30T04:13:03.659Z,97091.50
2022-09-30T04:15:29.856Z,97091.03
2022-09-30T04:17:56.129Z,97088.94
2022-09-30T04:20:22.488Z,97103.09
2022-09-30T04:22:48.732Z,97101.56
2022-09-30T04:25:14.948Z,97097.94
2022-09-30T04:27:41.211Z,97096.16
2022-09-30T04:30:07.431Z,97103.16
2022-09-30T04:32:33.688Z,97108.81
2022-09-30T04:34:59.932Z,97111.53
2022-09-30T04:37:26.226Z,97116.09
2022-09-30T04:39:52.560Z,97114.03
2022-09-30T04:42:18.803Z,97113.53
2022-09-30T04:44:45.120Z,97114.66
2022-09-30T04:47:11.433Z,97114.22
2022-09-30T04:49:37.678Z,97116.47
2022-09-30T04:52:04.497Z,97121.28
2022-09-30T04:54:30.805Z,97117.56
2022-09-30T04:56:57.050Z,97126.09
2022-09-30T04:59:23.348Z,97125.06
2022-09-30T05:01:49.773Z,97126.91
2022-09-30T05:04:16.116Z,97134.38
2022-09-30T05:06:42.516Z,97130.44
2022-09-30T05:09:08.788Z,97132.03
2022-09-30T05:11:35.060Z,97135.25
2022-09-30T05:14:01.374Z,97133.16
2022-09-30T05:16:27.991Z,97138.78
2022-09-30T05:18:54.477Z,97142.78
2022-09-30T05:21:20.857Z,97145.44
2022-09-30T05:23:47.255Z,97154.78
2022-09-30T05:26:13.557Z,97164.09
2022-09-30T05:28:40.069Z,97169.19
2022-09-30T05:31:06.545Z,97168.94
2022-09-30T05:33:32.908Z,97174.00
2022-09-30T05:35:59.354Z,97163.94
2022-09-30T05:38:25.794Z,97167.94
2022-09-30T05:40:51.982Z,97169.56
2022-09-30T05:43:18.195Z,97175.44
2022-09-30T05:45:44.528Z,97176.78
2022-09-30T05:48:10.757Z,97180.13
2022-09-30T05:50:36.985Z,97182.44
2022-09-30T05:53:03.386Z,97184.97
2022-09-30T05:55:29.738Z,97179.50
2022-09-30T05:57:56.000Z,97180.97
2022-09-30T06:00:22.665Z,97180.03
2022-09-30T06:02:48.993Z,97186.81
2022-09-30T06:05:15.292Z,97185.59
2022-09-30T06:07:41.532Z,97189.97
2022-09-30T06:10:07.762Z,97192.00
2022-09-30T06:12:34.288Z,97197.69
2022-09-30T06:15:00.697Z,97202.63
2022-09-30T06:17:26.977Z,97205.94
2022-09-30T06:19:53.392Z,97205.00
2022-09-30T06:22:19.622Z,97206.75
2022-09-30T06:24:45.841Z,97209.75
2022-09-30T06:27:12.239Z,97209.28
2022-09-30T06:29:38.456Z,97221.91
2022-09-30T06:32:04.693Z,97222.44
2022-09-30T06:34:30.972Z,97231.31
2022-09-30T06:36:57.356Z,97237.19
2022-09-30T06:39:23.718Z,97240.91
2022-09-30T06:41:50.304Z,97246.81
2022-09-30T06:44:16.769Z,97250.28
2022-09-30T06:46:53.316Z,97253.16
2022-09-30T06:49:20.328Z,97249.63
2022-09-30T06:51:46.553Z,97261.88
2022-09-30T06:54:12.765Z,97272.25
2022-09-30T06:56:38.997Z,97270.59
2022-09-30T06:59:05.456Z,97267.03
2022-09-30T07:01:31.674Z,97263.72
2022-09-30T07:03:58.097Z,97264.72
2022-09-30T07:06:24.497Z,97267.84
2022-09-30T07:08:50.723Z,97277.94
2022-09-30T07:11:16.925Z,97278.41
2022-09-30T07:13:43.217Z,97277.25
2022-09-30T07:16:09.668Z,97276.06
2022-09-30T07:18:35.930Z,97280.56
2022-09-30T07:21:05.564Z,97277.25
2022-09-30T07:23:31.863Z,97286.56
2022-09-30T07:25:58.066Z,97277.88
2022-09-30T07:28:24.440Z,97288.31
2022-09-30T07:30:50.728Z,97279.91
2022-09-30T07:33:17.012Z,97283.09
2022-09-30T07:35:43.975Z,97278.19
2022-09-30T07:38:10.280Z,97277.81
2022-09-30T07:40:36.736Z,97275.31
2022-09-30T07:43:03.054Z,97274.94
2022-09-30T07:45:29.489Z,97284.56
2022-09-30T07:47:56.066Z,97289.06
2022-09-30T07:50:22.823Z,97283.63
2022-09-30T07:52:49.092Z,97287.25
2022-09-30T07:55:15.397Z,97285.53
2022-09-30T07:57:41.696Z,97289.22
2022-09-30T08:00:30.216Z,97288.25
2022-09-30T08:02:56.552Z,97290.53
2022-09-30T08:05:22.998Z,97287.69
2022-09-30T08:07:49.486Z,97291.81
2022-09-30T08:10:15.735Z,97288.66
2022-09-30T08:12:42.014Z,97291.69
2022-09-30T08:15:08.228Z,97294.44
2022-09-30T08:17:34.500Z,97294.00
2022-09-30T08:20:00.733Z,97306.38
2022-09-30T08:22:27.122Z,97302.13
2022-09-30T08:25:01.778Z,97303.53
2022-09-30T08:27:28.043Z,97309.97
2022-09-30T08:29:56.569Z,97317.25
2022-09-30T08:32:23.753Z,97317.72
2022-09-30T08:34:50.299Z,97332.31
2022-09-30T08:37:16.659Z,97328.13
2022-09-30T08:39:42.948Z,97321.72
2022-09-30T08:42:25.472Z,97321.59
2022-09-30T08:44:55.658Z,97318.31
2022-09-30T08:47:21.966Z,97324.50
2022-09-30T08:49:48.494Z,97321.59
2022-09-30T08:52:24.465Z,97312.00
2022-09-30T08:54:57.204Z,97313.81
2022-09-30T08:57:24.511Z,97315.72
2022-09-30T08:59:50.726Z,97315.06
2022-09-30T09:02:17.725Z,97311.53
2022-09-30T09:04:44.499Z,97300.38
2022-09-30T09:07:10.820Z,97295.81
2022-09-30T09:09:37.052Z,97293.22
2022-09-30T09:12:03.252Z,97296.84
2022-09-30T09:14:29.480Z,97292.03
2022-09-30T09:16:55.859Z,97297.44
2022-09-30T09:19:22.681Z,97300.41
2022-09-30T09:21:49.010Z,97297.72
2022-09-30T09:24:15.241Z,97302.00
2022-09-30T09:26:41.518Z,97298.53
2022-09-30T09:29:07.753Z,97309.28
2022-09-30T09:31:34.036Z,97297.72
2022-09-30T09:34:00.308Z,97295.84
2022-09-30T09:36:26.834Z,97295.03
2022-09-30T09:38:53.165Z,97299.31
2022-09-30T09:41:19.475Z,97302.00
2022-09-30T09:43:45.658Z,97291.22
2022-09-30T09:46:11.898Z,97298.22
2022-09-30T09:48:38.202Z,97307.38
2022-09-30T09:51:04.516Z,97301.22
2022-09-30T09:53:30.750Z,97306.28
2022-09-30T09:55:56.979Z,97302.00
2022-09-30T09:58:23.261Z,97308.19
2022-09-30T10:00:49.525Z,97310.06
2022-09-30T10:03:15.937Z,97308.19
2022-09-30T10:05:42.256Z,97312.75
2022-09-30T10:08:08.470Z,97323.50
2022-09-30T10:10:34.733Z,97320.81
2022-09-30T10:13:03.215Z,97327.28
2022-09-30T10:15:29.525Z,97321.91
2022-09-30T10:17:55.740Z,97316.84
2022-09-30T10:20:21.937Z,97320.28
2022-09-30T10:22:48.165Z,97320.59
2022-09-30T10:25:14.372Z,97327.88
2022-09-30T10:27:40.621Z,97331.63
2022-09-30T10:30:06.844Z,97322.75
2022-09-30T10:32:33.371Z,97331.63
2022-09-30T10:34:59.729Z,97323.06
2022-09-30T10:37:26.080Z,97323.06
2022-09-30T10:39:52.544Z,97332.22
2022-09-30T10:42:22.321Z,97335.97
2022-09-30T10:44:49.953Z,97330.59
2022-09-30T10:47:16.451Z,97327.44
2022-09-30T10:49:42.760Z,97332.81
2022-09-30T10:52:09.021Z,97338.19
2022-09-30T10:54:35.239Z,97335.75
2022-09-30T10:57:01.445Z,97336.56
2022-09-30T10:59:27.754Z,97334.94
2022-09-30T11:01:56.558Z,97329.56
2022-09-30T11:04:24.877Z,97336.03
2022-09-30T11:06:51.095Z,97325.28
2022-09-30T11:09:17.324Z,97331.75
2022-09-30T11:11:43.629Z,97332.56
2022-09-30T11:14:09.816Z,97328.25
2022-09-30T11:16:36.187Z,97327.97
2022-09-30T11:19:02.533Z,97330.66
2022-09-30T11:21:28.749Z,97327.97
2022-09-30T11:23:54.939Z,97327.97
2022-09-30T11:26:21.642Z,97334.94
2022-09-30T11:28:48.075Z,97333.34
2022-09-30T11:31:14.355Z,97338.72
2022-09-30T11:33:40.572Z,97340.63
2022-09-30T11:36:07.006Z,97344.09
2022-09-30T11:38:33.242Z,97342.50
2022-09-30T11:40:59.488Z,97340.09
2022-09-30T11:43:26.116Z,97340.09
2022-09-30T11:45:52.560Z,97338.22
2022-09-30T11:48:18.858Z,97349.25
2022-09-30T11:50:45.164Z,97343.09
2022-09-30T11:53:11.361Z,97346.84
2022-09-30T11:55:37.559Z,97349.53
2022-09-30T11:58:22.449Z,97345.78
2022-09-30T12:00:50.062Z,97352.22
2022-09-30T12:03:16.629Z,97346.84
2022-09-30T12:05:43.021Z,97350.63
2022-09-30T12:08:09.865Z,97342.56
2022-09-30T12:10:36.131Z,97345.25
2022-09-30T12:13:02.649Z,97342.56
2022-09-30T12:15:28.962Z,97341.47
2022-09-30T12:17:55.289Z,97338.00
2022-09-30T12:20:21.930Z,97339.88
2022-09-30T12:22:48.167Z,97329.13
2022-09-30T12:25:14.431Z,97324.03
2022-09-30T12:27:40.999Z,97330.19
2022-09-30T12:30:07.392Z,97327.50
2022-09-30T12:32:33.697Z,97332.09
2022-09-30T12:34:59.895Z,97329.41
2022-09-30T12:37:26.179Z,97321.66
2022-09-30T12:39:52.569Z,97328.91
2022-09-30T12:42:18.762Z,97328.09
2022-09-30T12:44:44.964Z,97322.19
2022-09-30T12:47:11.332Z,97330.25
2022-09-30T12:49:37.570Z,97322.19
2022-09-30T12:52:03.872Z,97313.34
2022-09-30T12:54:30.135Z,97317.94
2022-09-30T12:56:58.539Z,97320.09
2022-09-30T12:59:25.186Z,97320.38
2022-09-30T13:01:51.521Z,97316.91
2022-09-30T13:04:17.817Z,97321.47
2022-09-30T13:06:44.130Z,97322.84
2022-09-30T13:09:10.635Z,97317.78
2022-09-30T13:11:36.895Z,97319.66
2022-09-30T13:14:03.151Z,97318.06
2022-09-30T13:16:30.020Z,97310.25
2022-09-30T13:18:56.495Z,97308.69
2022-09-30T13:21:22.702Z,97301.72
2022-09-30T13:23:48.923Z,97315.69
2022-09-30T13:26:15.143Z,97318.38
2022-09-30T13:28:41.367Z,97312.53
2022-09-30T13:31:07.643Z,97307.41
2022-09-30T13:33:34.001Z,97305.00
2022-09-30T13:36:00.324Z,97308.00
2022-09-30T13:38:26.865Z,97301.03
2022-09-30T13:41:02.756Z,97300.50
2022-09-30T13:43:29.511Z,97305.06
2022-09-30T13:45:55.760Z,97298.41
2022-09-30T13:48:22.060Z,97306.47
2022-09-30T13:50:48.593Z,97308.63
2022-09-30T13:53:15.003Z,97305.44
2022-09-30T13:55:41.398Z,97306.50
2022-09-30T13:58:07.617Z,97298.22
2022-09-30T14:00:33.893Z,97304.97
2022-09-30T14:03:00.525Z,97303.34
2022-09-30T14:05:26.874Z,97295.31
2022-09-30T14:07:53.236Z,97299.91
2022-09-30T14:10:19.549Z,97300.97
2022-09-30T14:12:45.787Z,97297.78
2022-09-30T14:15:12.048Z,97296.47
2022-09-30T14:17:38.371Z,97302.94
2022-09-30T14:20:04.588Z,97304.00
2022-09-30T14:22:30.820Z,97303.47
2022-09-30T14:24:57.516Z,97305.09
2022-09-30T14:27:24.397Z,97298.41
2022-09-30T14:29:50.723Z,97297.59
2022-09-30T14:32:17.015Z,97290.91
2022-09-30T14:34:43.610Z,97290.91
2022-09-30T14:37:09.926Z,97293.88
2022-09-30T14:39:36.162Z,97294.41
2022-09-30T14:42:02.572Z,97290.94
2022-09-30T14:44:29.322Z,97288.53
2022-09-30T14:46:55.676Z,97291.50
2022-09-30T14:49:24.641Z,97287.00
2022-09-30T14:51:50.891Z,97291.03
2022-09-30T14:54:17.630Z,97278.47
2022-09-30T14:56:43.859Z,97281.72
2022-09-30T14:59:10.614Z,97289.25
2022-09-30T15:01:37.040Z,97301.34
2022-09-30T15:04:03.325Z,97282.31
2022-09-30T15:06:29.899Z,97282.31
2022-09-30T15:08:56.633Z,97272.16
2022-09-30T15:11:22.891Z,97277.00
2022-09-30T15:13:49.155Z,97271.94
2022-09-30T15:16:15.877Z,97277.59
2022-09-30T15:18:42.130Z,97276.25
2022-09-30T15:21:08.502Z,97267.19
2022-09-30T15:23:34.851Z,97267.72
2022-09-30T15:26:01.172Z,97253.00
2022-09-30T15:28:27.872Z,97262.94
2022-09-30T15:30:54.558Z,97248.22
2022-09-30T15:33:20.860Z,97249.28
2022-09-30T15:35:47.194Z,97253.06
2022-09-30T15:38:13.376Z,97252.53
2022-09-30T15:40:42.084Z,97248.28
2022-09-30T15:43:08.381Z,97240.22
2022-09-30T15:45:36.122Z,97252.03
2022-09-30T15:48:02.611Z,97249.63
2022-09-30T15:50:29.099Z,97243.75
2022-09-30T15:52:55.347Z,97244.03
2022-09-30T15:55:24.298Z,97246.19
2022-09-30T15:57:50.545Z,97248.34
2022-09-30T16:00:16.857Z,97242.19
2022-09-30T16:02:43.870Z,97243.53
2022-09-30T16:05:10.258Z,97236.06
2022-09-30T16:07:36.523Z,97236.34
2022-09-30T16:10:02.869Z,97234.75
2022-09-30T16:12:29.386Z,97236.09
2022-09-30T16:14:55.581Z,97234.75
2022-09-30T16:17:23.088Z,97228.88
2022-09-30T16:19:49.822Z,97238.28
2022-09-30T16:22:16.111Z,97240.44
2022-09-30T16:24:42.454Z,97241.78
2022-09-30T16:27:08.698Z,97242.09
2022-09-30T16:29:35.069Z,97235.66
2022-09-30T16:32:06.345Z,97237.84
2022-09-30T16:34:32.695Z,97241.06
2022-09-30T16:36:59.516Z,97245.91
2022-09-30T16:39:27.278Z,97247.28
2022-09-30T16:41:56.306Z,97245.94
2022-09-30T16:44:22.546Z,97237.41
2022-09-30T16:46:48.799Z,97239.03
2022-09-30T16:49:15.030Z,97242.00
2022-09-30T16:51:41.227Z,97248.72
2022-09-30T16:54:07.484Z,97244.72
2022-09-30T16:56:34.075Z,97240.72
2022-09-30T16:59:00.571Z,97247.16
2022-09-30T17:01:26.910Z,97245.00
2022-09-30T17:03:53.270Z,97256.00
2022-09-30T17:06:19.484Z,97253.91
2022-09-30T17:08:45.693Z,97252.56
2022-09-30T17:11:11.973Z,97248.84
2022-09-30T17:13:38.476Z,97267.06
2022-09-30T17:16:05.007Z,97267.63
2022-09-30T17:18:31.227Z,97263.63
2022-09-30T17:20:57.483Z,97239.56
2022-09-30T17:23:23.713Z,97267.13
2022-09-30T17:25:49.945Z,97268.47
2022-09-30T17:28:16.774Z,97265.00
2022-09-30T17:30:43.105Z,97264.47
2022-09-30T17:33:09.335Z,97265.00
2022-09-30T17:35:35.675Z,97267.94
2022-09-30T17:38:02.198Z,97261.28
2022-09-30T17:40:28.627Z,97272.25
2022-09-30T17:42:58.111Z,97269.84
2022-09-30T17:45:25.134Z,97274.66
2022-09-30T17:47:51.388Z,97272.53
2022-09-30T17:50:17.620Z,97276.31
2022-09-30T17:52:43.835Z,97276.84
2022-09-30T17:55:10.481Z,97277.94
2022-09-30T17:57:36.773Z,97270.44
2022-09-30T18:00:02.984Z,97273.41
2022-09-30T18:02:29.529Z,97275.56
2022-09-30T18:04:55.963Z,97277.69
2022-09-30T18:07:22.255Z,97280.66
2022-09-30T18:09:48.456Z,97281.97
2022-09-30T18:12:14.692Z,97285.75
2022-09-30T18:14:40.970Z,97289.47
2022-09-30T18:17:07.928Z,97287.06
2022-09-30T18:19:34.439Z,97289.22
2022-09-30T18:22:00.767Z,97283.34
2022-09-30T18:24:26.987Z,97292.72
2022-09-30T18:26:53.186Z,97290.31
2022-09-30T18:29:19.459Z,97291.66
2022-09-30T18:31:45.710Z,97301.59
2022-09-30T18:34:12.558Z,97298.38
2022-09-30T18:36:38.792Z,97290.88
2022-09-30T18:39:05.025Z,97293.53
2022-09-30T18:41:31.861Z,97301.06
2022-09-30T18:43:58.519Z,97292.50
2022-09-30T18:46:26.060Z,97295.47
2022-09-30T18:48:52.607Z,97290.63
2022-09-30T18:51:18.923Z,97293.56
2022-09-30T18:53:45.201Z,97288.78
2022-09-30T18:56:11.402Z,97292.50
2022-09-30T18:58:37.640Z,97287.16
2022-09-30T19:01:04.044Z,97283.16
2022-09-30T19:03:30.443Z,97283.44
2022-09-30T19:05:56.645Z,97282.63
2022-09-30T19:08:23.350Z,97279.94
2022-09-30T19:10:49.659Z,97277.53
2022-09-30T19:13:15.891Z,97277.00
2022-09-30T19:15:42.075Z,97272.75
2022-09-30T19:18:08.497Z,97266.88
2022-09-30T19:20:34.785Z,97267.91
2022-09-30T19:23:01.357Z,97267.41
2022-09-30T19:25:27.659Z,97263.13
2022-09-30T19:27:53.934Z,97270.59
2022-09-30T19:30:20.235Z,97270.59
2022-09-30T19:32:46.606Z,97268.19
2022-09-30T19:35:12.799Z,97271.13
2022-09-30T19:37:39.063Z,97272.19
2022-09-30T19:40:16.120Z,97272.19
2022-09-30T19:42:45.103Z,97270.59
2022-09-30T19:45:11.316Z,97267.09
2022-09-30T19:47:41.270Z,97269.00
2022-09-30T19:50:07.656Z,97265.50
2022-09-30T19:52:34.115Z,97259.34
2022-09-30T19:55:13.082Z,97263.09
2022-09-30T19:57:42.205Z,97266.06
2022-09-30T20:00:08.449Z,97260.72
2022-09-30T20:02:34.713Z,97259.91
2022-09-30T20:05:00.977Z,97257.50
2022-09-30T20:07:27.288Z,97267.38
2022-09-30T20:09:53.558Z,97273.53
2022-09-30T20:12:19.777Z,97264.16
2022-09-30T20:14:46.390Z,97263.63
2022-09-30T20:17:12.659Z,97267.38
2022-09-30T20:19:38.974Z,97266.56
2022-09-30T20:22:05.178Z,97273.81
2022-09-30T20:24:31.444Z,97273.81
2022-09-30T20:26:57.690Z,97276.22
2022-09-30T20:29:23.949Z,97275.41
2022-09-30T20:31:50.594Z,97271.16
2022-09-30T20:34:16.965Z,97265.78
2022-09-30T20:36:43.513Z,97279.16
2022-09-30T20:39:09.828Z,97273.56
2022-09-30T20:41:36.543Z,97272.75
2022-09-30T20:44:02.768Z,97281.84
2022-09-30T20:46:28.987Z,97281.03
2022-09-30T20:48:56.691Z,97284.75
2022-09-30T20:51:22.920Z,97278.09
2022-09-30T20:53:50.813Z,97278.91
2022-09-30T20:56:17.087Z,97293.34
2022-09-30T20:58:43.529Z,97283.72
2022-09-30T21:01:09.805Z,97282.09
2022-09-30T21:03:36.066Z,97272.47
2022-09-30T21:06:02.301Z,97268.19
2022-09-30T21:08:28.857Z,97269.00
2022-09-30T21:10:55.083Z,97271.94
2022-09-30T21:13:21.331Z,97268.72
2022-09-30T21:15:47.655Z,97267.91
2022-09-30T21:18:13.919Z,97266.34
2022-09-30T21:20:40.190Z,97267.41
2022-09-30T21:23:06.488Z,97268.19
2022-09-30T21:25:32.730Z,97262.31
2022-09-30T21:27:59.011Z,97261.53
2022-09-30T21:30:25.288Z,97254.56
2022-09-30T21:32:51.540Z,97248.44
2022-09-30T21:35:17.771Z,97248.69
2022-09-30T21:37:43.960Z,97250.56
2022-09-30T21:40:10.220Z,97248.16
2022-09-30T21:42:36.502Z,97247.34
2022-09-30T21:45:02.771Z,97244.97
2022-09-30T21:47:31.189Z,97249.50
2022-09-30T21:49:57.563Z,97233.19
2022-09-30T21:52:23.938Z,97237.22
2022-09-30T21:54:50.606Z,97235.59
2022-09-30T21:57:16.886Z,97234.00
2022-09-30T21:59:45.494Z,97234.00
2022-09-30T22:02:14.881Z,97222.78
2022-09-30T22:04:41.152Z,97230.53
2022-09-30T22:07:10.600Z,97224.63
2022-09-30T22:09:39.420Z,97221.44
2022-09-30T22:12:06.484Z,97217.13
2022-09-30T22:14:32.835Z,97215.56
2022-09-30T22:16:59.177Z,97215.56
2022-09-30T22:19:25.372Z,97186.09
2022-09-30T22:21:51.630Z,97202.41
2022-09-30T22:24:17.871Z,97199.72
2022-09-30T22:26:44.824Z,97193.56
2022-09-30T22:29:11.071Z,97196.22
2022-09-30T22:31:37.852Z,97195.19
2022-09-30T22:34:04.603Z,97193.56
2022-09-30T22:36:30.874Z,97189.78
2022-09-30T22:38:57.512Z,97184.19
2022-09-30T22:41:23.748Z,97182.31
2022-09-30T22:43:49.959Z,97178.56
2022-09-30T22:46:17.094Z,97182.56
2022-09-30T22:48:44.126Z,97167.59
2022-09-30T22:51:10.358Z,97168.94
2022-09-30T22:53:37.961Z,97160.66
2022-09-30T22:56:04.543Z,97166.50
2022-09-30T22:58:30.794Z,97159.28
2022-09-30T23:00:58.918Z,97159.03
2022-09-30T23:03:25.207Z,97164.06
2022-09-30T23:05:51.540Z,97161.13
2022-09-30T23:08:17.750Z,97165.13
2022-09-30T23:10:44.568Z,97168.28
2022-09-30T23:13:10.757Z,97164.53
2022-09-30T23:15:36.970Z,97164.78
2022-09-30T23:18:03.155Z,97169.06
2022-09-30T23:20:29.390Z,97172.22
2022-09-30T23:22:56.628Z,97172.47
2022-09-30T23:25:22.925Z,97167.69
2022-09-30T23:27:49.358Z,97174.31
2022-09-30T23:30:15.607Z,97161.50
2022-09-30T23:32:42.083Z,97157.25
2022-09-30T23:35:08.628Z,97163.13
2022-09-30T23:37:34.838Z,97162.84
2022-09-30T23:40:01.118Z,97162.28
2022-09-30T23:42:27.351Z,97159.88
2022-09-30T23:44:53.687Z,97156.66
2022-09-30T23:47:19.877Z,97159.59
2022-09-30T23:49:46.111Z,97155.56
2022-09-30T23:52:13.436Z,97148.88
2022-09-30T23:54:39.839Z,97147.56
2022-09-30T23:57:07.089Z,97140.88
2022-09-30T23:59:33.310Z,97134.47
